Time;durP1;ratioP1;P1;durP2;ratioP2;P2;SDS_P1;SDS_P2;PMS_P1;PMS_P2;Temp;Humidity;BMP_temperature;BMP_pressure;BME280_temperature;BME280_humidity;BME280_pressure;Samples;Min_cycle;Max_cycle;Signal;HPM_P1;HPM_P2
2023/03/25 00:02:26;;;;;;;3.27;2.67;;;;;;;;;;6210520;28;20558;-76
2023/03/25 00:05:31;;;;;;;1.70;1.60;;;;;;;;;;6210356;28;20595;-76
2023/03/25 00:08:37;;;;;;;4.73;2.37;;;;;;;;;;6210881;28;20306;-76
2023/03/25 00:11:42;;;;;;;5.13;2.20;;;;;;;;;;6209976;28;20295;-76
2023/03/25 00:14:53;;;;;;;0.57;0.57;;;;;;;;;;6210751;28;20308;-75
2023/03/25 00:18:00;;;;;;;0.60;0.60;;;;;;;;;;6210932;28;20304;-76
2023/03/25 00:21:09;;;;;;;0.50;0.50;;;;;;;;;;6210948;28;20294;-75
2023/03/25 00:24:16;;;;;;;0.50;0.50;;;;;;;;;;6210921;28;20313;-75
2023/03/25 00:27:22;;;;;;;0.70;0.70;;;;;;;;;;6210845;28;20299;-75
2023/03/25 00:30:27;;;;;;;0.60;0.60;;;;;;;;;;6210356;28;20296;-76
2023/03/25 00:33:34;;;;;;;0.60;0.60;;;;;;;;;;6208973;28;20488;-75
2023/03/25 00:36:40;;;;;;;0.50;0.50;;;;;;;;;;6209454;28;20286;-75
2023/03/25 00:39:45;;;;;;;0.60;0.60;;;;;;;;;;6213465;28;20303;-75
2023/03/25 00:42:51;;;;;;;0.50;0.50;;;;;;;;;;6214984;28;20296;-75
2023/03/25 00:45:56;;;;;;;0.50;0.50;;;;;;;;;;6214177;28;20592;-76
2023/03/25 00:49:03;;;;;;;0.60;0.60;;;;;;;;;;6215265;28;20297;-74
2023/03/25 00:52:10;;;;;;;0.60;0.60;;;;;;;;;;6216142;28;20301;-75
2023/03/25 00:55:17;;;;;;;0.53;0.53;;;;;;;;;;6214635;28;20297;-75
2023/03/25 00:58:22;;;;;;;0.57;0.57;;;;;;;;;;6214272;28;20297;-76
2023/03/25 01:01:29;;;;;;;0.53;0.53;;;;;;;;;;6214414;28;20321;-76
2023/03/25 01:04:38;;;;;;;0.50;0.50;;;;;;;;;;6213385;28;20315;-75
2023/03/25 01:07:48;;;;;;;0.50;0.50;;;;;;;;;;6212773;28;20274;-75
2023/03/25 01:10:53;;;;;;;0.60;0.60;;;;;;;;;;6215834;28;20552;-76
2023/03/25 01:13:59;;;;;;;0.57;0.57;;;;;;;;;;6215018;28;20288;-76
2023/03/25 01:17:05;;;;;;;0.50;0.50;;;;;;;;;;6215400;28;20290;-75
2023/03/25 01:20:13;;;;;;;0.60;0.60;;;;;;;;;;6214018;28;20289;-75
2023/03/25 01:23:18;;;;;;;0.50;0.50;;;;;;;;;;6215004;28;20316;-75
2023/03/25 01:26:23;;;;;;;0.67;0.67;;;;;;;;;;6214809;28;20304;-74
2023/03/25 01:29:28;;;;;;;0.70;0.70;;;;;;;;;;6213569;28;20511;-75
2023/03/25 01:32:34;;;;;;;0.53;0.53;;;;;;;;;;6213150;28;20572;-74
2023/03/25 01:35:41;;;;;;;0.77;0.77;;;;;;;;;;6213711;28;20395;-74
2023/03/25 01:38:49;;;;;;;0.70;0.70;;;;;;;;;;6213124;28;20300;-76
2023/03/25 01:41:57;;;;;;;0.77;0.70;;;;;;;;;;6213906;28;20304;-76
2023/03/25 01:45:15;;;;;;;0.50;0.50;;;;;;;;;;6212344;28;20300;-75
2023/03/25 01:48:25;;;;;;;0.80;0.80;;;;;;;;;;6213393;28;20304;-75
2023/03/25 01:51:35;;;;;;;0.70;0.70;;;;;;;;;;6213621;28;20295;-76
2023/03/25 01:54:41;;;;;;;0.80;0.80;;;;;;;;;;6213485;28;20303;-76
2023/03/25 01:57:46;;;;;;;0.80;0.80;;;;;;;;;;6213135;28;20308;-74
2023/03/25 02:00:53;;;;;;;0.80;0.80;;;;;;;;;;6213783;28;20300;-75
2023/03/25 02:04:01;;;;;;;0.80;0.80;;;;;;;;;;6219672;23;20301;-74
2023/03/25 02:07:10;;;;;;;0.80;0.80;;;;;;;;;;6211908;28;20283;-78
2023/03/25 02:10:16;;;;;;;0.80;0.80;;;;;;;;;;6210738;28;20637;-76
2023/03/25 02:13:22;;;;;;;0.90;0.90;;;;;;;;;;6210500;28;20300;-75
2023/03/25 02:16:30;;;;;;;1.10;1.10;;;;;;;;;;6211355;28;20420;-74
2023/03/25 02:20:07;;;;;;;0.77;0.77;;;;;;;;;;6204540;28;20306;-74
2023/03/25 02:23:59;;;;;;;1.20;1.20;;;;;;;;;;6186615;28;20308;-74
2023/03/25 02:27:44;;;;;;;1.40;1.40;;;;;;;;;;6187450;28;20447;-74
2023/03/25 02:31:07;;;;;;;1.30;1.30;;;;;;;;;;6185937;28;20297;-75
2023/03/25 02:34:38;;;;;;;1.23;1.20;;;;;;;;;;6185709;28;20328;-74
2023/03/25 02:38:06;;;;;;;1.33;1.23;;;;;;;;;;6186378;28;20284;-75
2023/03/25 02:41:19;;;;;;;1.30;1.30;;;;;;;;;;6186326;28;20306;-74
2023/03/25 02:44:30;;;;;;;1.53;1.53;;;;;;;;;;6187235;28;20323;-75
2023/03/25 02:47:36;;;;;;;1.50;1.50;;;;;;;;;;6186167;28;20302;-74
2023/03/25 02:50:45;;;;;;;1.70;1.60;;;;;;;;;;6185071;28;20301;-75
2023/03/25 02:53:52;;;;;;;2.63;2.20;;;;;;;;;;6185415;28;20591;-74
2023/03/25 02:56:59;;;;;;;1.37;1.37;;;;;;;;;;6185856;28;20329;-74
2023/03/25 03:00:14;;;;;;;2.80;2.63;;;;;;;;;;6186054;28;20300;-74
2023/03/25 03:03:19;;;;;;;2.50;2.40;;;;;;;;;;6184743;28;20310;-75
2023/03/25 03:06:26;;;;;;;2.50;2.30;;;;;;;;;;6185531;28;20301;-75
2023/03/25 03:09:42;;;;;;;2.80;2.70;;;;;;;;;;6184833;28;20297;-73
2023/03/25 03:12:57;;;;;;;2.40;2.30;;;;;;;;;;6187075;28;20550;-76
2023/03/25 03:16:10;;;;;;;2.17;2.07;;;;;;;;;;6186982;28;20313;-74
2023/03/25 03:19:26;;;;;;;2.10;2.10;;;;;;;;;;6186345;28;20493;-75
2023/03/25 03:22:38;;;;;;;1.80;1.80;;;;;;;;;;6186847;28;20302;-74
2023/03/25 03:25:49;;;;;;;2.33;2.23;;;;;;;;;;6185575;28;20581;-75
2023/03/25 03:29:01;;;;;;;2.00;2.00;;;;;;;;;;6186125;28;20295;-75
2023/03/25 03:32:10;;;;;;;2.13;2.00;;;;;;;;;;6186755;28;20317;-75
2023/03/25 03:35:19;;;;;;;1.47;1.47;;;;;;;;;;6186157;28;20302;-75
2023/03/25 03:38:27;;;;;;;1.33;1.33;;;;;;;;;;6185985;28;20303;-74
2023/03/25 03:41:36;;;;;;;2.90;1.50;;;;;;;;;;6186022;28;20585;-76
2023/03/25 03:44:43;;;;;;;1.40;1.40;;;;;;;;;;6185560;28;20311;-74
2023/03/25 03:47:51;;;;;;;1.80;1.80;;;;;;;;;;6185873;28;20291;-75
2023/03/25 03:51:00;;;;;;;1.63;1.53;;;;;;;;;;6186420;28;20304;-76
2023/03/25 03:54:08;;;;;;;2.10;1.80;;;;;;;;;;6186156;28;20298;-75
2023/03/25 03:57:19;;;;;;;1.70;1.70;;;;;;;;;;6185951;28;20293;-75
2023/03/25 04:00:27;;;;;;;2.37;2.37;;;;;;;;;;6188518;28;20576;-74
2023/03/25 04:03:37;;;;;;;2.60;2.40;;;;;;;;;;6200872;28;20543;-74
2023/03/25 04:06:46;;;;;;;2.57;2.37;;;;;;;;;;6196489;28;20298;-74
2023/03/25 04:09:56;;;;;;;2.13;2.07;;;;;;;;;;6208253;28;20299;-75
2023/03/25 04:13:05;;;;;;;2.10;2.10;;;;;;;;;;6188657;28;20475;-74
2023/03/25 04:16:13;;;;;;;2.07;1.83;;;;;;;;;;6190634;28;20301;-74
2023/03/25 04:19:18;;;;;;;1.80;1.70;;;;;;;;;;6198651;28;20595;-75
2023/03/25 04:22:24;;;;;;;2.03;2.00;;;;;;;;;;6213014;28;20393;-74
2023/03/25 04:25:31;;;;;;;1.80;1.80;;;;;;;;;;6214196;28;20536;-74
2023/03/25 04:28:40;;;;;;;1.87;1.87;;;;;;;;;;6211871;28;20300;-76
2023/03/25 04:31:48;;;;;;;1.70;1.70;;;;;;;;;;6214613;28;20265;-74
2023/03/25 04:34:56;;;;;;;1.67;1.60;;;;;;;;;;6213911;28;20585;-75
2023/03/25 04:38:02;;;;;;;1.97;1.80;;;;;;;;;;6191574;28;20302;-74
2023/03/25 04:41:09;;;;;;;1.90;1.80;;;;;;;;;;6190151;28;20297;-75
2023/03/25 04:44:16;;;;;;;1.80;1.80;;;;;;;;;;6187788;28;20402;-76
2023/03/25 04:47:23;;;;;;;1.60;1.60;;;;;;;;;;6190134;28;20574;-74
2023/03/25 04:50:30;;;;;;;1.57;1.47;;;;;;;;;;6189772;28;20379;-74
2023/03/25 04:53:35;;;;;;;1.67;1.57;;;;;;;;;;6189006;28;20373;-74
2023/03/25 04:56:40;;;;;;;2.00;2.00;;;;;;;;;;6189706;28;20293;-75
2023/03/25 04:59:47;;;;;;;2.30;1.83;;;;;;;;;;6189207;28;20296;-74
2023/03/25 05:02:54;;;;;;;1.60;1.60;;;;;;;;;;6188584;28;20519;-74
2023/03/25 05:05:59;;;;;;;1.80;1.80;;;;;;;;;;6189813;28;20293;-75
2023/03/25 05:09:05;;;;;;;1.70;1.70;;;;;;;;;;6189349;28;20299;-73
2023/03/25 05:12:13;;;;;;;2.10;2.00;;;;;;;;;;6192597;28;20289;-74
2023/03/25 05:15:19;;;;;;;1.97;1.80;;;;;;;;;;6189121;28;20300;-74
2023/03/25 05:18:25;;;;;;;1.87;1.70;;;;;;;;;;6189136;28;20309;-75
2023/03/25 05:21:30;;;;;;;1.70;1.70;;;;;;;;;;6189728;28;20290;-75
2023/03/25 05:24:36;;;;;;;1.90;1.90;;;;;;;;;;6186201;28;20303;-74
2023/03/25 05:27:41;;;;;;;1.80;1.80;;;;;;;;;;6188958;28;20475;-74
2023/03/25 05:30:48;;;;;;;2.03;2.00;;;;;;;;;;6189452;28;20293;-74
2023/03/25 05:33:53;;;;;;;1.97;1.97;;;;;;;;;;6188886;28;20371;-76
2023/03/25 05:36:59;;;;;;;1.73;1.73;;;;;;;;;;6189446;28;20294;-75
2023/03/25 05:40:06;;;;;;;1.90;1.80;;;;;;;;;;6188478;28;20308;-74
2023/03/25 05:43:21;;;;;;;2.07;1.97;;;;;;;;;;6188882;28;20298;-74
2023/03/25 05:46:29;;;;;;;1.80;1.70;;;;;;;;;;6188811;28;20291;-75
2023/03/25 05:49:34;;;;;;;2.07;2.00;;;;;;;;;;6188052;28;20312;-74
2023/03/25 05:52:40;;;;;;;1.97;1.80;;;;;;;;;;6185531;28;20291;-74
2023/03/25 05:55:49;;;;;;;2.03;2.03;;;;;;;;;;6188837;28;20573;-75
2023/03/25 05:58:55;;;;;;;2.30;2.00;;;;;;;;;;6186656;28;20297;-74
2023/03/25 06:02:02;;;;;;;2.10;2.00;;;;;;;;;;6188395;28;20310;-74
2023/03/25 06:05:08;;;;;;;1.80;1.70;;;;;;;;;;6188287;28;20302;-73
2023/03/25 06:08:16;;;;;;;2.07;1.93;;;;;;;;;;6186322;28;20298;-75
2023/03/25 06:11:21;;;;;;;2.27;1.90;;;;;;;;;;6192141;28;20295;-74
2023/03/25 06:14:27;;;;;;;2.67;1.80;;;;;;;;;;6187614;28;20489;-74
2023/03/25 06:17:37;;;;;;;3.07;1.90;;;;;;;;;;6187070;28;20305;-75
2023/03/25 06:20:43;;;;;;;2.10;2.00;;;;;;;;;;6188052;28;20295;-76
2023/03/25 06:23:52;;;;;;;2.73;2.20;;;;;;;;;;6185958;28;20397;-75
2023/03/25 06:26:57;;;;;;;1.80;1.70;;;;;;;;;;6186791;28;20577;-75
2023/03/25 06:30:03;;;;;;;2.20;2.00;;;;;;;;;;6187450;28;20577;-75
2023/03/25 06:33:12;;;;;;;4.47;2.13;;;;;;;;;;6186950;28;20442;-75
2023/03/25 06:36:37;;;;;;;4.60;2.03;;;;;;;;;;6187590;28;20607;-74
2023/03/25 06:39:48;;;;;;;2.00;1.90;;;;;;;;;;6187374;28;20609;-76
2023/03/25 06:42:57;;;;;;;2.73;2.40;;;;;;;;;;6186101;28;20294;-73
2023/03/25 06:46:34;;;;;;;3.23;1.80;;;;;;;;;;6186223;28;20295;-75
2023/03/25 06:50:02;;;;;;;2.23;2.10;;;;;;;;;;6186487;28;20289;-74
2023/03/25 06:53:08;;;;;;;3.50;2.20;;;;;;;;;;6186679;28;20293;-74
2023/03/25 06:56:13;;;;;;;2.57;2.07;;;;;;;;;;6187672;28;20315;-75
2023/03/25 06:59:18;;;;;;;2.07;1.97;;;;;;;;;;6186964;28;20304;-75
2023/03/25 07:02:23;;;;;;;2.47;2.27;;;;;;;;;;6186720;28;20306;-75
2023/03/25 07:05:30;;;;;;;2.80;2.33;;;;;;;;;;6186568;28;20503;-74
2023/03/25 07:08:36;;;;;;;3.17;2.63;;;;;;;;;;6186653;28;20288;-75
2023/03/25 07:11:41;;;;;;;2.43;2.23;;;;;;;;;;6189167;28;20294;-74
2023/03/25 07:14:52;;;;;;;2.73;2.50;;;;;;;;;;6186832;28;20299;-75
2023/03/25 07:17:57;;;;;;;2.60;2.40;;;;;;;;;;6185900;28;20290;-74
2023/03/25 07:21:04;;;;;;;2.10;2.00;;;;;;;;;;6187167;28;20446;-75
2023/03/25 07:24:11;;;;;;;2.63;1.80;;;;;;;;;;6185015;28;20595;-74
2023/03/25 07:27:16;;;;;;;3.63;2.50;;;;;;;;;;6187356;28;20303;-74
2023/03/25 07:30:31;;;;;;;3.47;1.80;;;;;;;;;;6184785;28;20299;-73
2023/03/25 07:33:37;;;;;;;2.00;1.90;;;;;;;;;;6185081;28;20330;-75
2023/03/25 07:36:44;;;;;;;2.00;1.90;;;;;;;;;;6186820;28;20426;-75
2023/03/25 07:39:49;;;;;;;2.47;2.30;;;;;;;;;;6185963;28;20304;-74
2023/03/25 07:42:54;;;;;;;1.97;1.87;;;;;;;;;;6184849;28;20367;-74
2023/03/25 07:46:08;;;;;;;2.17;1.83;;;;;;;;;;6188001;28;20299;-75
2023/03/25 07:49:13;;;;;;;2.10;2.00;;;;;;;;;;6192633;28;20297;-75
2023/03/25 07:52:20;;;;;;;2.37;2.17;;;;;;;;;;6194256;28;20298;-75
2023/03/25 07:55:25;;;;;;;2.10;2.00;;;;;;;;;;6192258;28;20531;-75
2023/03/25 07:58:30;;;;;;;2.20;2.10;;;;;;;;;;6193769;28;20627;-75
2023/03/25 08:01:36;;;;;;;2.43;2.30;;;;;;;;;;6193659;28;20633;-75
2023/03/25 08:04:41;;;;;;;2.30;2.23;;;;;;;;;;6191754;28;20368;-74
2023/03/25 08:07:48;;;;;;;2.30;2.20;;;;;;;;;;6193070;28;20274;-75
2023/03/25 08:10:53;;;;;;;2.63;2.47;;;;;;;;;;6197499;28;20265;-74
2023/03/25 08:13:58;;;;;;;2.33;2.23;;;;;;;;;;6193912;28;20292;-74
2023/03/25 08:17:04;;;;;;;2.33;2.17;;;;;;;;;;6193268;28;20291;-74
2023/03/25 08:20:12;;;;;;;2.80;2.37;;;;;;;;;;6193742;28;20578;-75
2023/03/25 08:23:18;;;;;;;2.17;2.07;;;;;;;;;;6192408;28;20300;-75
2023/03/25 08:26:24;;;;;;;2.17;2.00;;;;;;;;;;6194037;28;20300;-74
2023/03/25 08:29:33;;;;;;;1.90;1.80;;;;;;;;;;6192340;28;20493;-74
2023/03/25 08:32:39;;;;;;;1.97;1.87;;;;;;;;;;6193512;28;20299;-76
2023/03/25 08:35:44;;;;;;;2.80;2.20;;;;;;;;;;6193097;28;20298;-75
2023/03/25 08:38:52;;;;;;;2.10;2.00;;;;;;;;;;6192459;28;20305;-74
2023/03/25 08:41:57;;;;;;;2.20;2.10;;;;;;;;;;6194063;28;20296;-74
2023/03/25 08:45:03;;;;;;;2.03;2.03;;;;;;;;;;6193080;28;20298;-74
2023/03/25 08:48:10;;;;;;;3.13;2.20;;;;;;;;;;6193116;28;20285;-75
2023/03/25 08:51:15;;;;;;;2.10;1.90;;;;;;;;;;6193231;28;20304;-75
2023/03/25 08:54:22;;;;;;;2.10;2.00;;;;;;;;;;6192571;28;20301;-76
2023/03/25 08:57:27;;;;;;;2.20;2.00;;;;;;;;;;6192224;28;20293;-74
2023/03/25 09:00:32;;;;;;;2.10;1.90;;;;;;;;;;6188419;28;20428;-73
2023/03/25 09:03:39;;;;;;;1.90;1.90;;;;;;;;;;6188353;28;20304;-75
2023/03/25 09:06:45;;;;;;;2.40;2.30;;;;;;;;;;6189767;28;20301;-75
2023/03/25 09:10:13;;;;;;;2.30;2.10;;;;;;;;;;6192398;28;20299;-75
2023/03/25 09:13:19;;;;;;;4.30;1.97;;;;;;;;;;6189247;28;20321;-75
2023/03/25 09:16:24;;;;;;;2.50;2.30;;;;;;;;;;6189537;28;20309;-74
2023/03/25 09:19:29;;;;;;;2.33;2.23;;;;;;;;;;6188982;28;20304;-74
2023/03/25 09:22:35;;;;;;;2.20;2.00;;;;;;;;;;6188879;28;20575;-73
2023/03/25 09:25:41;;;;;;;2.20;2.10;;;;;;;;;;6187817;28;20287;-74
2023/03/25 09:28:47;;;;;;;2.40;2.20;;;;;;;;;;6188398;28;20451;-74
2023/03/25 09:31:52;;;;;;;1.90;1.90;;;;;;;;;;6188936;28;20273;-74
2023/03/25 09:34:57;;;;;;;2.17;2.17;;;;;;;;;;6189059;28;20298;-74
2023/03/25 09:38:02;;;;;;;3.70;2.40;;;;;;;;;;6188640;28;20308;-73
2023/03/25 09:41:28;;;;;;;2.07;1.97;;;;;;;;;;6188755;28;20543;-72
2023/03/25 09:44:36;;;;;;;2.30;2.10;;;;;;;;;;6188188;28;20335;-74
2023/03/25 09:47:44;;;;;;;2.63;2.10;;;;;;;;;;6188330;28;20302;-75
2023/03/25 09:50:49;;;;;;;1.90;1.80;;;;;;;;;;6189241;28;20297;-75
2023/03/25 09:53:58;;;;;;;2.10;1.90;;;;;;;;;;6188427;28;20389;-74
2023/03/25 09:57:09;;;;;;;2.17;2.07;;;;;;;;;;6188694;28;20298;-74
2023/03/25 10:00:18;;;;;;;2.00;2.00;;;;;;;;;;6188459;28;20312;-74
2023/03/25 10:03:28;;;;;;;2.00;2.00;;;;;;;;;;6186074;28;20304;-74
2023/03/25 10:06:36;;;;;;;2.00;2.00;;;;;;;;;;6188098;28;20301;-75
2023/03/25 10:09:47;;;;;;;2.63;2.40;;;;;;;;;;6189199;28;20594;-74
2023/03/25 10:13:02;;;;;;;1.60;1.60;;;;;;;;;;6187488;28;20290;-74
2023/03/25 10:16:12;;;;;;;1.93;1.87;;;;;;;;;;6188215;28;20301;-76
2023/03/25 10:19:31;;;;;;;1.63;1.63;;;;;;;;;;6187181;28;20297;-78
2023/03/25 10:22:40;;;;;;;2.03;1.83;;;;;;;;;;6186473;28;20301;-74
2023/03/25 10:25:47;;;;;;;1.97;1.83;;;;;;;;;;6187423;28;20324;-73
2023/03/25 10:28:58;;;;;;;1.80;1.80;;;;;;;;;;6187329;28;20309;-74
2023/03/25 10:32:07;;;;;;;3.13;2.00;;;;;;;;;;6187979;28;20300;-72
2023/03/25 10:35:17;;;;;;;1.93;1.93;;;;;;;;;;6187538;28;20297;-74
2023/03/25 10:38:23;;;;;;;2.10;2.00;;;;;;;;;;6186647;28;20299;-74
2023/03/25 10:41:32;;;;;;;2.20;2.00;;;;;;;;;;6187959;28;20305;-74
2023/03/25 10:44:38;;;;;;;1.87;1.87;;;;;;;;;;6186556;28;20306;-75
2023/03/25 10:47:45;;;;;;;2.10;2.10;;;;;;;;;;6186551;28;20314;-76
2023/03/25 10:50:51;;;;;;;1.87;1.87;;;;;;;;;;6187640;28;20294;-76
2023/03/25 10:53:57;;;;;;;2.20;1.70;;;;;;;;;;6186535;28;20301;-74
2023/03/25 10:57:04;;;;;;;2.23;2.13;;;;;;;;;;6187114;28;20573;-75
2023/03/25 11:00:17;;;;;;;2.40;2.13;;;;;;;;;;6185224;28;20301;-74
2023/03/25 11:03:25;;;;;;;1.30;1.30;;;;;;;;;;6186168;28;20304;-75
2023/03/25 11:06:32;;;;;;;1.23;1.20;;;;;;;;;;6186927;28;20302;-75
2023/03/25 11:09:37;;;;;;;1.73;1.73;;;;;;;;;;6188401;28;20610;-75
2023/03/25 11:12:44;;;;;;;1.90;1.90;;;;;;;;;;6186398;28;20300;-75
2023/03/25 11:15:53;;;;;;;1.70;1.70;;;;;;;;;;6186574;28;20293;-75
2023/03/25 11:19:01;;;;;;;1.80;1.70;;;;;;;;;;6186751;28;20297;-75
2023/03/25 11:22:11;;;;;;;1.90;1.83;;;;;;;;;;6185942;28;20296;-76
2023/03/25 11:25:20;;;;;;;2.93;1.80;;;;;;;;;;6185731;28;20405;-75
2023/03/25 11:28:36;;;;;;;1.90;1.80;;;;;;;;;;6185481;28;20304;-73
2023/03/25 11:31:44;;;;;;;1.77;1.77;;;;;;;;;;6185843;28;20282;-75
2023/03/25 11:34:51;;;;;;;2.23;2.13;;;;;;;;;;6185208;28;20298;-75
2023/03/25 11:37:58;;;;;;;2.40;2.30;;;;;;;;;;6185794;28;20316;-76
2023/03/25 11:41:03;;;;;;;1.80;1.80;;;;;;;;;;6185352;28;20322;-75
2023/03/25 11:44:20;;;;;;;2.10;1.93;;;;;;;;;;6186243;28;20474;-75
2023/03/25 11:47:30;;;;;;;2.00;2.00;;;;;;;;;;6185165;28;20301;-76
2023/03/25 11:50:36;;;;;;;2.07;1.97;;;;;;;;;;6185836;28;20289;-76
2023/03/25 11:53:45;;;;;;;2.30;2.20;;;;;;;;;;6185981;28;20314;-75
2023/03/25 11:56:50;;;;;;;2.37;2.27;;;;;;;;;;6186828;28;20296;-75
2023/03/25 12:00:07;;;;;;;2.33;1.60;;;;;;;;;;6186097;28;20293;-75
2023/03/25 12:03:21;;;;;;;3.03;2.20;;;;;;;;;;6185690;28;20308;-76
2023/03/25 12:06:28;;;;;;;2.33;2.23;;;;;;;;;;6186647;28;20286;-75
2023/03/25 12:09:34;;;;;;;2.30;2.20;;;;;;;;;;6186567;28;20307;-76
2023/03/25 12:12:43;;;;;;;2.30;2.30;;;;;;;;;;6187101;28;20482;-72
2023/03/25 12:15:54;;;;;;;3.07;2.60;;;;;;;;;;6184550;28;20591;-74
2023/03/25 12:19:11;;;;;;;2.20;2.10;;;;;;;;;;6185516;28;20450;-76
2023/03/25 12:22:28;;;;;;;2.30;2.30;;;;;;;;;;6185531;28;20294;-75
2023/03/25 12:25:52;;;;;;;2.43;2.33;;;;;;;;;;6185212;28;20302;-75
2023/03/25 12:29:15;;;;;;;2.40;2.40;;;;;;;;;;6184429;28;20295;-75
2023/03/25 12:32:27;;;;;;;9.90;6.07;;;;;;;;;;6186848;28;20291;-77
2023/03/25 12:35:40;;;;;;;44.93;19.20;;;;;;;;;;6188665;28;20293;-75
2023/03/25 12:38:53;;;;;;;3.73;3.53;;;;;;;;;;6190157;28;20308;-77
2023/03/25 12:42:04;;;;;;;3.17;2.97;;;;;;;;;;6189388;28;20305;-75
2023/03/25 12:45:33;;;;;;;3.00;2.90;;;;;;;;;;6189000;28;20302;-77
2023/03/25 12:48:56;;;;;;;2.93;2.77;;;;;;;;;;6189537;28;20309;-75
2023/03/25 12:52:07;;;;;;;2.40;2.40;;;;;;;;;;6190213;28;20475;-75
2023/03/25 12:55:33;;;;;;;3.17;2.97;;;;;;;;;;6188254;28;20296;-76
2023/03/25 12:59:09;;;;;;;4.87;3.10;;;;;;;;;;6188907;28;20488;-75
2023/03/25 13:02:26;;;;;;;4.37;4.00;;;;;;;;;;6166327;28;20302;-75
2023/03/25 13:05:36;;;;;;;4.67;3.80;;;;;;;;;;6189479;28;20538;-74
2023/03/25 13:08:47;;;;;;;3.47;3.27;;;;;;;;;;6187980;28;20302;-75
2023/03/25 13:11:54;;;;;;;4.07;3.70;;;;;;;;;;6192573;28;20310;-76
2023/03/25 13:15:05;;;;;;;3.37;3.20;;;;;;;;;;6189174;28;20317;-75
2023/03/25 13:18:14;;;;;;;2.50;2.50;;;;;;;;;;6189873;28;20580;-74
2023/03/25 13:21:22;;;;;;;2.17;2.10;;;;;;;;;;6189064;28;20307;-74
2023/03/25 13:24:35;;;;;;;2.50;2.40;;;;;;;;;;6188979;28;20320;-74
2023/03/25 13:27:42;;;;;;;2.30;2.30;;;;;;;;;;6188259;28;20294;-72
2023/03/25 13:30:48;;;;;;;2.40;2.30;;;;;;;;;;6187072;28;20318;-76
2023/03/25 13:33:56;;;;;;;2.30;2.30;;;;;;;;;;6188840;28;20296;-76
2023/03/25 13:37:09;;;;;;;2.60;2.50;;;;;;;;;;6188816;28;20298;-76
2023/03/25 13:40:24;;;;;;;1.80;1.80;;;;;;;;;;6188409;28;20302;-75
2023/03/25 13:43:33;;;;;;;2.20;2.10;;;;;;;;;;6188433;28;20334;-75
2023/03/25 13:46:40;;;;;;;2.30;2.20;;;;;;;;;;6187719;28;20270;-75
2023/03/25 13:49:50;;;;;;;3.70;2.87;;;;;;;;;;6188274;28;20588;-76
2023/03/25 13:52:58;;;;;;;2.50;2.50;;;;;;;;;;6188874;28;20304;-73
2023/03/25 13:56:33;;;;;;;4.37;2.33;;;;;;;;;;6188286;28;20302;-75
2023/03/25 14:00:05;;;;;;;2.03;2.03;;;;;;;;;;6188490;28;20301;-74
2023/03/25 14:03:41;;;;;;;2.10;2.10;;;;;;;;;;6188423;28;20309;-74
2023/03/25 14:07:02;;;;;;;2.30;2.20;;;;;;;;;;6166014;28;20293;-74
2023/03/25 14:10:29;;;;;;;2.47;2.37;;;;;;;;;;6191252;28;20307;-73
2023/03/25 14:13:38;;;;;;;1.90;1.90;;;;;;;;;;6179504;28;20301;-75
2023/03/25 14:16:45;;;;;;;2.80;2.60;;;;;;;;;;6187188;28;20334;-75
2023/03/25 14:19:54;;;;;;;2.70;2.50;;;;;;;;;;6187173;28;20310;-74
2023/03/25 14:23:01;;;;;;;2.83;2.60;;;;;;;;;;6188451;28;20299;-75
2023/03/25 14:26:09;;;;;;;2.37;2.30;;;;;;;;;;6187634;28;20301;-74
2023/03/25 14:29:37;;;;;;;3.23;3.03;;;;;;;;;;6187845;28;20298;-74
2023/03/25 14:32:44;;;;;;;4.40;4.10;;;;;;;;;;6187902;28;20318;-74
2023/03/25 14:35:50;;;;;;;3.20;3.10;;;;;;;;;;6187652;28;20317;-76
2023/03/25 14:38:56;;;;;;;4.43;3.03;;;;;;;;;;6186674;28;20312;-76
2023/03/25 14:42:03;;;;;;;2.93;2.83;;;;;;;;;;6187566;28;20298;-76
2023/03/25 14:45:48;;;;;;;3.43;3.23;;;;;;;;;;6186803;28;20322;-74
2023/03/25 14:49:19;;;;;;;3.47;3.27;;;;;;;;;;6162784;28;20473;-75
2023/03/25 14:52:31;;;;;;;3.13;2.93;;;;;;;;;;6187554;28;20305;-76
2023/03/25 14:55:42;;;;;;;2.70;2.50;;;;;;;;;;6185441;28;20304;-74
2023/03/25 14:58:49;;;;;;;3.20;3.10;;;;;;;;;;6186674;28;20291;-75
2023/03/25 15:01:55;;;;;;;3.63;3.53;;;;;;;;;;6187105;28;20276;-75
2023/03/25 15:05:04;;;;;;;3.03;2.93;;;;;;;;;;6187095;28;20294;-74
2023/03/25 15:08:16;;;;;;;3.17;3.07;;;;;;;;;;6186777;28;20365;-75
2023/03/25 15:11:27;;;;;;;2.97;2.87;;;;;;;;;;6189433;28;20297;-76
2023/03/25 15:14:36;;;;;;;2.93;2.90;;;;;;;;;;6185190;28;20301;-75
2023/03/25 15:17:44;;;;;;;3.10;2.90;;;;;;;;;;6187417;28;20297;-75
2023/03/25 15:20:51;;;;;;;2.73;2.63;;;;;;;;;;6186943;28;20608;-75
2023/03/25 15:24:03;;;;;;;3.07;2.70;;;;;;;;;;6186967;28;20303;-75
2023/03/25 15:27:15;;;;;;;2.87;2.87;;;;;;;;;;6187835;28;20297;-75
2023/03/25 15:30:48;;;;;;;2.93;2.90;;;;;;;;;;6187184;28;20508;-75
2023/03/25 15:34:03;;;;;;;3.70;3.60;;;;;;;;;;6186745;28;20292;-75
2023/03/25 15:37:32;;;;;;;4.97;3.73;;;;;;;;;;6187083;28;20644;-75
2023/03/25 15:41:02;;;;;;;4.10;3.90;;;;;;;;;;6185078;28;20582;-75
2023/03/25 15:44:36;;;;;;;3.40;3.20;;;;;;;;;;6185897;28;20589;-73
2023/03/25 15:47:54;;;;;;;3.07;3.07;;;;;;;;;;6185866;28;20298;-74
2023/03/25 15:51:15;;;;;;;2.37;2.37;;;;;;;;;;6186016;28;20324;-74
2023/03/25 15:54:37;;;;;;;2.37;2.37;;;;;;;;;;6185442;28;20296;-75
2023/03/25 15:57:45;;;;;;;2.70;2.60;;;;;;;;;;6186216;28;20467;-74
2023/03/25 16:00:53;;;;;;;2.77;2.57;;;;;;;;;;6186120;28;20301;-74
2023/03/25 16:04:02;;;;;;;2.83;2.80;;;;;;;;;;6185490;28;20443;-74
2023/03/25 16:07:08;;;;;;;2.90;2.77;;;;;;;;;;6187043;28;20589;-74
2023/03/25 16:10:18;;;;;;;3.47;3.37;;;;;;;;;;6194017;28;20299;-74
2023/03/25 16:13:23;;;;;;;3.40;3.20;;;;;;;;;;6191309;28;20583;-75
2023/03/25 16:16:33;;;;;;;3.47;3.37;;;;;;;;;;6191248;28;20312;-75
2023/03/25 16:19:41;;;;;;;3.40;3.20;;;;;;;;;;6189818;28;20301;-73
2023/03/25 16:22:49;;;;;;;3.90;3.80;;;;;;;;;;6189716;28;20550;-73
2023/03/25 16:25:56;;;;;;;3.93;3.70;;;;;;;;;;6190317;28;20302;-73
2023/03/25 16:29:15;;;;;;;3.90;3.70;;;;;;;;;;6190205;28;20311;-74
2023/03/25 16:32:23;;;;;;;3.60;3.50;;;;;;;;;;6190217;28;20370;-73
2023/03/25 16:35:29;;;;;;;3.67;3.40;;;;;;;;;;6189725;28;20301;-73
2023/03/25 16:38:34;;;;;;;3.17;3.07;;;;;;;;;;6190074;28;20290;-73
2023/03/25 16:41:44;;;;;;;3.03;2.93;;;;;;;;;;6190604;28;20462;-73
2023/03/25 16:44:49;;;;;;;3.67;3.47;;;;;;;;;;6189724;28;20301;-75
2023/03/25 16:47:55;;;;;;;3.73;3.53;;;;;;;;;;6190178;28;20416;-76
2023/03/25 16:51:05;;;;;;;3.00;2.90;;;;;;;;;;6189406;28;20300;-75
2023/03/25 16:54:31;;;;;;;2.60;2.50;;;;;;;;;;6188176;28;20301;-74
2023/03/25 16:57:39;;;;;;;3.00;2.87;;;;;;;;;;6189901;28;20297;-74
2023/03/25 17:00:48;;;;;;;3.03;2.90;;;;;;;;;;6189342;28;20309;-74
2023/03/25 17:04:08;;;;;;;3.17;3.07;;;;;;;;;;6188873;28;20301;-74
2023/03/25 17:07:19;;;;;;;3.50;3.30;;;;;;;;;;6190076;28;20286;-74
2023/03/25 17:10:27;;;;;;;2.53;2.50;;;;;;;;;;6192022;28;20309;-73
2023/03/25 17:13:39;;;;;;;3.20;3.10;;;;;;;;;;6189116;28;20294;-73
2023/03/25 17:16:47;;;;;;;6.53;3.37;;;;;;;;;;6188694;28;20274;-74
2023/03/25 17:19:53;;;;;;;2.90;2.80;;;;;;;;;;6187087;28;20297;-75
2023/03/25 17:23:02;;;;;;;2.87;2.73;;;;;;;;;;6189244;28;20399;-74
2023/03/25 17:26:08;;;;;;;3.30;3.20;;;;;;;;;;6188618;28;20309;-75
2023/03/25 17:29:17;;;;;;;2.67;2.67;;;;;;;;;;6188433;28;20293;-75
2023/03/25 17:32:22;;;;;;;3.40;3.20;;;;;;;;;;6188466;28;20294;-75
2023/03/25 17:35:31;;;;;;;3.60;3.30;;;;;;;;;;6188116;28;20609;-74
2023/03/25 17:38:39;;;;;;;2.67;2.47;;;;;;;;;;6188538;28;20302;-75
2023/03/25 17:41:44;;;;;;;2.70;2.50;;;;;;;;;;6188538;28;20309;-74
2023/03/25 17:44:51;;;;;;;2.83;2.63;;;;;;;;;;6187269;28;20597;-73
2023/03/25 17:47:57;;;;;;;3.47;3.27;;;;;;;;;;6188499;28;20305;-74
2023/03/25 17:51:02;;;;;;;3.37;3.27;;;;;;;;;;6188445;28;20455;-74
2023/03/25 17:54:07;;;;;;;3.03;2.50;;;;;;;;;;6188426;28;20378;-74
2023/03/25 17:57:16;;;;;;;2.87;2.50;;;;;;;;;;6188093;28;20461;-75
2023/03/25 18:00:22;;;;;;;2.30;2.20;;;;;;;;;;6188406;28;20309;-74
2023/03/25 18:03:29;;;;;;;1.97;1.90;;;;;;;;;;6187749;28;20297;-75
2023/03/25 18:06:34;;;;;;;2.33;2.20;;;;;;;;;;6188391;28;20296;-74
2023/03/25 18:09:40;;;;;;;3.33;2.70;;;;;;;;;;6189455;28;20300;-74
2023/03/25 18:12:45;;;;;;;2.50;2.40;;;;;;;;;;6188941;28;20532;-73
2023/03/25 18:15:53;;;;;;;2.30;2.17;;;;;;;;;;6186939;28;20297;-74
2023/03/25 18:18:58;;;;;;;2.57;2.47;;;;;;;;;;6186817;28;20305;-74
2023/03/25 18:22:03;;;;;;;2.67;2.43;;;;;;;;;;6187796;28;20287;-74
2023/03/25 18:25:24;;;;;;;2.30;2.17;;;;;;;;;;6187953;28;20302;-75
2023/03/25 18:28:29;;;;;;;2.80;2.50;;;;;;;;;;6187751;28;20296;-74
2023/03/25 18:31:36;;;;;;;2.73;2.53;;;;;;;;;;6187622;28;20296;-75
2023/03/25 18:34:41;;;;;;;1.80;1.80;;;;;;;;;;6186905;28;20297;-75
2023/03/25 18:37:47;;;;;;;1.90;1.80;;;;;;;;;;6187583;28;20267;-76
2023/03/25 18:40:53;;;;;;;2.00;2.00;;;;;;;;;;6187281;28;20498;-75
2023/03/25 18:43:58;;;;;;;2.10;1.70;;;;;;;;;;6186792;28;20309;-75
2023/03/25 18:47:05;;;;;;;2.00;1.90;;;;;;;;;;6187635;28;20296;-75
2023/03/25 18:50:19;;;;;;;1.60;1.53;;;;;;;;;;6187521;28;20435;-75
2023/03/25 18:53:26;;;;;;;2.17;1.53;;;;;;;;;;6187155;28;20301;-75
2023/03/25 18:56:31;;;;;;;4.30;2.63;;;;;;;;;;6186983;28;20295;-76
2023/03/25 18:59:36;;;;;;;2.73;2.43;;;;;;;;;;6187423;28;20297;-74